sensor_id;sensor_type;location;lat;lon;timestamp;P1;durP1;ratioP1;P2;durP2;ratioP2
12848;SDS011;6493;50.928;7.172;2023-05-28T00:01:15;2.13;;;1.53;;
12848;SDS011;6493;50.928;7.172;2023-05-28T00:06:20;1.80;;;1.60;;
12848;SDS011;6493;50.928;7.172;2023-05-28T00:11:24;2.37;;;1.70;;
12848;SDS011;6493;50.928;7.172;2023-05-28T00:16:28;2.33;;;2.00;;
12848;SDS011;6493;50.928;7.172;2023-05-28T00:21:33;1.47;;;1.27;;
12848;SDS011;6493;50.928;7.172;2023-05-28T00:26:38;1.70;;;1.30;;
12848;SDS011;6493;50.928;7.172;2023-05-28T00:31:41;0.97;;;0.90;;
12848;SDS011;6493;50.928;7.172;2023-05-28T00:36:47;1.57;;;1.17;;
12848;SDS011;6493;50.928;7.172;2023-05-28T00:41:58;1.60;;;0.90;;
12848;SDS011;6493;50.928;7.172;2023-05-28T00:47:03;1.27;;;1.00;;
12848;SDS011;6493;50.928;7.172;2023-05-28T00:52:09;1.27;;;1.03;;
12848;SDS011;6493;50.928;7.172;2023-05-28T00:57:13;1.40;;;0.97;;
12848;SDS011;6493;50.928;7.172;2023-05-28T01:02:17;0.83;;;0.83;;
12848;SDS011;6493;50.928;7.172;2023-05-28T01:07:23;1.17;;;0.90;;
12848;SDS011;6493;50.928;7.172;2023-05-28T01:12:27;1.47;;;1.10;;
12848;SDS011;6493;50.928;7.172;2023-05-28T01:17:33;1.07;;;0.97;;
12848;SDS011;6493;50.928;7.172;2023-05-28T01:22:39;0.87;;;0.83;;
12848;SDS011;6493;50.928;7.172;2023-05-28T01:27:51;1.10;;;1.00;;
12848;SDS011;6493;50.928;7.172;2023-05-28T01:32:57;1.13;;;0.80;;
12848;SDS011;6493;50.928;7.172;2023-05-28T01:38:01;0.93;;;0.73;;
12848;SDS011;6493;50.928;7.172;2023-05-28T01:43:07;0.80;;;0.80;;
12848;SDS011;6493;50.928;7.172;2023-05-28T01:48:13;1.50;;;0.93;;
12848;SDS011;6493;50.928;7.172;2023-05-28T01:53:17;1.73;;;0.90;;
12848;SDS011;6493;50.928;7.172;2023-05-28T01:58:22;0.93;;;0.87;;
12848;SDS011;6493;50.928;7.172;2023-05-28T02:03:26;1.03;;;0.87;;
12848;SDS011;6493;50.928;7.172;2023-05-28T02:08:30;1.50;;;1.10;;
12848;SDS011;6493;50.928;7.172;2023-05-28T02:13:36;1.07;;;0.97;;
12848;SDS011;6493;50.928;7.172;2023-05-28T02:18:42;1.03;;;0.90;;
12848;SDS011;6493;50.928;7.172;2023-05-28T02:23:47;1.10;;;1.00;;
12848;SDS011;6493;50.928;7.172;2023-05-28T02:28:53;1.60;;;0.93;;
12848;SDS011;6493;50.928;7.172;2023-05-28T02:33:57;1.27;;;0.77;;
12848;SDS011;6493;50.928;7.172;2023-05-28T02:39:00;1.03;;;0.93;;
12848;SDS011;6493;50.928;7.172;2023-05-28T02:44:08;2.03;;;0.70;;
12848;SDS011;6493;50.928;7.172;2023-05-28T02:49:12;0.67;;;0.67;;
12848;SDS011;6493;50.928;7.172;2023-05-28T02:54:16;0.97;;;0.70;;
12848;SDS011;6493;50.928;7.172;2023-05-28T02:59:25;1.53;;;1.17;;
12848;SDS011;6493;50.928;7.172;2023-05-28T03:04:28;1.00;;;0.87;;
12848;SDS011;6493;50.928;7.172;2023-05-28T03:09:35;1.30;;;0.87;;
12848;SDS011;6493;50.928;7.172;2023-05-28T03:14:41;0.73;;;0.63;;
12848;SDS011;6493;50.928;7.172;2023-05-28T03:19:45;1.67;;;0.60;;
12848;SDS011;6493;50.928;7.172;2023-05-28T03:24:52;2.47;;;0.80;;
12848;SDS011;6493;50.928;7.172;2023-05-28T03:29:58;1.43;;;0.80;;
12848;SDS011;6493;50.928;7.172;2023-05-28T03:35:23;1.20;;;0.83;;
12848;SDS011;6493;50.928;7.172;2023-05-28T03:40:27;2.40;;;0.80;;
12848;SDS011;6493;50.928;7.172;2023-05-28T03:45:33;1.07;;;0.70;;
12848;SDS011;6493;50.928;7.172;2023-05-28T03:50:37;1.10;;;0.90;;
12848;SDS011;6493;50.928;7.172;2023-05-28T03:55:41;0.70;;;0.70;;
12848;SDS011;6493;50.928;7.172;2023-05-28T04:00:49;1.53;;;0.90;;
12848;SDS011;6493;50.928;7.172;2023-05-28T04:05:55;1.57;;;1.00;;
12848;SDS011;6493;50.928;7.172;2023-05-28T04:10:59;1.63;;;1.17;;
12848;SDS011;6493;50.928;7.172;2023-05-28T04:16:05;1.57;;;1.30;;
12848;SDS011;6493;50.928;7.172;2023-05-28T04:21:09;1.53;;;1.20;;
12848;SDS011;6493;50.928;7.172;2023-05-28T04:26:13;2.03;;;1.20;;
12848;SDS011;6493;50.928;7.172;2023-05-28T04:31:19;1.40;;;1.30;;
12848;SDS011;6493;50.928;7.172;2023-05-28T04:36:23;1.50;;;1.33;;
12848;SDS011;6493;50.928;7.172;2023-05-28T04:41:31;1.93;;;1.40;;
12848;SDS011;6493;50.928;7.172;2023-05-28T04:46:36;1.50;;;1.30;;
12848;SDS011;6493;50.928;7.172;2023-05-28T04:51:40;2.13;;;1.33;;
12848;SDS011;6493;50.928;7.172;2023-05-28T04:56:43;1.97;;;1.40;;
12848;SDS011;6493;50.928;7.172;2023-05-28T05:01:49;1.10;;;1.00;;
12848;SDS011;6493;50.928;7.172;2023-05-28T05:06:53;2.57;;;1.60;;
12848;SDS011;6493;50.928;7.172;2023-05-28T05:11:56;2.00;;;1.40;;
12848;SDS011;6493;50.928;7.172;2023-05-28T05:17:01;1.50;;;1.30;;
12848;SDS011;6493;50.928;7.172;2023-05-28T05:22:08;1.33;;;1.23;;
12848;SDS011;6493;50.928;7.172;2023-05-28T05:27:14;1.97;;;1.30;;
12848;SDS011;6493;50.928;7.172;2023-05-28T05:32:19;1.93;;;1.60;;
12848;SDS011;6493;50.928;7.172;2023-05-28T05:37:28;1.50;;;1.17;;
12848;SDS011;6493;50.928;7.172;2023-05-28T05:42:50;1.87;;;1.20;;
12848;SDS011;6493;50.928;7.172;2023-05-28T05:47:55;1.27;;;1.07;;
12848;SDS011;6493;50.928;7.172;2023-05-28T05:52:59;1.03;;;0.97;;
12848;SDS011;6493;50.928;7.172;2023-05-28T05:58:04;1.23;;;1.10;;
12848;SDS011;6493;50.928;7.172;2023-05-28T06:03:10;1.33;;;1.10;;
12848;SDS011;6493;50.928;7.172;2023-05-28T06:08:32;1.47;;;1.17;;
12848;SDS011;6493;50.928;7.172;2023-05-28T06:13:48;1.60;;;1.30;;
12848;SDS011;6493;50.928;7.172;2023-05-28T06:18:54;1.00;;;1.00;;
12848;SDS011;6493;50.928;7.172;2023-05-28T06:23:58;1.00;;;0.90;;
12848;SDS011;6493;50.928;7.172;2023-05-28T06:29:02;1.70;;;1.37;;
12848;SDS011;6493;50.928;7.172;2023-05-28T06:34:09;1.50;;;1.10;;
12848;SDS011;6493;50.928;7.172;2023-05-28T06:39:13;1.40;;;1.17;;
12848;SDS011;6493;50.928;7.172;2023-05-28T06:44:21;1.23;;;1.10;;
12848;SDS011;6493;50.928;7.172;2023-05-28T06:49:31;1.17;;;1.00;;
12848;SDS011;6493;50.928;7.172;2023-05-28T06:54:35;1.27;;;1.10;;
12848;SDS011;6493;50.928;7.172;2023-05-28T06:59:40;1.30;;;1.03;;
12848;SDS011;6493;50.928;7.172;2023-05-28T07:05:06;1.03;;;0.90;;
12848;SDS011;6493;50.928;7.172;2023-05-28T07:10:11;1.33;;;1.10;;
12848;SDS011;6493;50.928;7.172;2023-05-28T07:15:17;1.67;;;1.23;;
12848;SDS011;6493;50.928;7.172;2023-05-28T07:20:25;1.77;;;1.47;;
12848;SDS011;6493;50.928;7.172;2023-05-28T07:25:36;1.87;;;1.20;;
12848;SDS011;6493;50.928;7.172;2023-05-28T07:30:40;1.43;;;1.03;;
12848;SDS011;6493;50.928;7.172;2023-05-28T07:35:47;1.30;;;1.20;;
12848;SDS011;6493;50.928;7.172;2023-05-28T07:40:52;1.53;;;1.10;;
12848;SDS011;6493;50.928;7.172;2023-05-28T07:46:01;1.40;;;1.17;;
12848;SDS011;6493;50.928;7.172;2023-05-28T07:51:14;1.50;;;1.13;;
12848;SDS011;6493;50.928;7.172;2023-05-28T07:56:21;1.40;;;1.10;;
12848;SDS011;6493;50.928;7.172;2023-05-28T08:01:26;1.50;;;1.30;;
12848;SDS011;6493;50.928;7.172;2023-05-28T08:06:32;1.17;;;1.00;;
12848;SDS011;6493;50.928;7.172;2023-05-28T08:11:39;1.20;;;1.10;;
12848;SDS011;6493;50.928;7.172;2023-05-28T08:16:44;1.30;;;1.10;;
12848;SDS011;6493;50.928;7.172;2023-05-28T08:21:58;1.10;;;1.00;;
12848;SDS011;6493;50.928;7.172;2023-05-28T08:27:03;1.33;;;1.20;;
12848;SDS011;6493;50.928;7.172;2023-05-28T08:32:07;1.10;;;1.00;;
12848;SDS011;6493;50.928;7.172;2023-05-28T08:37:15;1.10;;;1.00;;
12848;SDS011;6493;50.928;7.172;2023-05-28T08:42:39;1.40;;;1.20;;
12848;SDS011;6493;50.928;7.172;2023-05-28T08:47:43;1.67;;;1.20;;
12848;SDS011;6493;50.928;7.172;2023-05-28T08:52:53;1.13;;;0.90;;
12848;SDS011;6493;50.928;7.172;2023-05-28T08:57:57;1.30;;;1.20;;
12848;SDS011;6493;50.928;7.172;2023-05-28T09:03:01;1.17;;;1.07;;
12848;SDS011;6493;50.928;7.172;2023-05-28T09:08:12;1.53;;;1.27;;
12848;SDS011;6493;50.928;7.172;2023-05-28T09:13:19;1.50;;;1.00;;
12848;SDS011;6493;50.928;7.172;2023-05-28T09:18:25;1.30;;;1.20;;
12848;SDS011;6493;50.928;7.172;2023-05-28T09:23:30;1.30;;;1.20;;
12848;SDS011;6493;50.928;7.172;2023-05-28T09:28:57;1.70;;;1.30;;
12848;SDS011;6493;50.928;7.172;2023-05-28T09:34:03;1.83;;;1.20;;
12848;SDS011;6493;50.928;7.172;2023-05-28T09:39:09;1.80;;;1.10;;
12848;SDS011;6493;50.928;7.172;2023-05-28T09:44:13;1.23;;;1.07;;
12848;SDS011;6493;50.928;7.172;2023-05-28T09:49:22;0.90;;;0.80;;
12848;SDS011;6493;50.928;7.172;2023-05-28T09:54:29;0.87;;;0.87;;
12848;SDS011;6493;50.928;7.172;2023-05-28T09:59:37;1.03;;;0.97;;
12848;SDS011;6493;50.928;7.172;2023-05-28T10:04:41;1.60;;;1.50;;
12848;SDS011;6493;50.928;7.172;2023-05-28T10:09:48;1.50;;;1.40;;
12848;SDS011;6493;50.928;7.172;2023-05-28T10:14:55;1.63;;;1.53;;
12848;SDS011;6493;50.928;7.172;2023-05-28T10:19:59;1.53;;;1.43;;
12848;SDS011;6493;50.928;7.172;2023-05-28T10:25:08;1.27;;;1.17;;
12848;SDS011;6493;50.928;7.172;2023-05-28T10:30:14;1.80;;;1.40;;
12848;SDS011;6493;50.928;7.172;2023-05-28T10:35:34;1.70;;;1.60;;
12848;SDS011;6493;50.928;7.172;2023-05-28T10:40:39;1.60;;;1.50;;
12848;SDS011;6493;50.928;7.172;2023-05-28T10:45:43;1.43;;;1.33;;
12848;SDS011;6493;50.928;7.172;2023-05-28T10:50:55;2.00;;;1.40;;
12848;SDS011;6493;50.928;7.172;2023-05-28T10:56:01;1.70;;;1.60;;
12848;SDS011;6493;50.928;7.172;2023-05-28T11:01:18;1.30;;;1.20;;
12848;SDS011;6493;50.928;7.172;2023-05-28T11:06:24;1.60;;;1.50;;
12848;SDS011;6493;50.928;7.172;2023-05-28T11:11:30;2.33;;;1.20;;
12848;SDS011;6493;50.928;7.172;2023-05-28T11:16:34;1.50;;;1.40;;
12848;SDS011;6493;50.928;7.172;2023-05-28T11:21:49;1.60;;;1.40;;
12848;SDS011;6493;50.928;7.172;2023-05-28T11:26:54;1.63;;;1.50;;
12848;SDS011;6493;50.928;7.172;2023-05-28T11:31:58;1.30;;;1.20;;
12848;SDS011;6493;50.928;7.172;2023-05-28T11:37:02;1.50;;;1.37;;
12848;SDS011;6493;50.928;7.172;2023-05-28T11:42:08;1.43;;;1.33;;
12848;SDS011;6493;50.928;7.172;2023-05-28T11:47:12;1.33;;;1.13;;
12848;SDS011;6493;50.928;7.172;2023-05-28T11:52:17;1.70;;;1.60;;
12848;SDS011;6493;50.928;7.172;2023-05-28T11:57:24;1.50;;;1.40;;
12848;SDS011;6493;50.928;7.172;2023-05-28T12:02:29;2.50;;;2.20;;
12848;SDS011;6493;50.928;7.172;2023-05-28T12:07:33;2.80;;;2.37;;
12848;SDS011;6493;50.928;7.172;2023-05-28T12:12:41;1.80;;;1.70;;
12848;SDS011;6493;50.928;7.172;2023-05-28T12:17:45;2.07;;;1.97;;
12848;SDS011;6493;50.928;7.172;2023-05-28T12:22:58;2.20;;;2.10;;
12848;SDS011;6493;50.928;7.172;2023-05-28T12:28:04;2.37;;;2.10;;
12848;SDS011;6493;50.928;7.172;2023-05-28T12:33:08;2.40;;;2.20;;
12848;SDS011;6493;50.928;7.172;2023-05-28T12:38:12;1.50;;;1.40;;
12848;SDS011;6493;50.928;7.172;2023-05-28T12:43:18;1.40;;;1.30;;
12848;SDS011;6493;50.928;7.172;2023-05-28T12:48:22;1.47;;;1.37;;
12848;SDS011;6493;50.928;7.172;2023-05-28T12:53:25;2.33;;;1.80;;
12848;SDS011;6493;50.928;7.172;2023-05-28T12:58:30;1.93;;;1.60;;
12848;SDS011;6493;50.928;7.172;2023-05-28T13:03:34;1.50;;;1.40;;
12848;SDS011;6493;50.928;7.172;2023-05-28T13:08:38;1.73;;;1.63;;
12848;SDS011;6493;50.928;7.172;2023-05-28T13:13:43;3.50;;;1.67;;
12848;SDS011;6493;50.928;7.172;2023-05-28T13:18:47;2.07;;;1.87;;
12848;SDS011;6493;50.928;7.172;2023-05-28T13:23:51;1.60;;;1.50;;
12848;SDS011;6493;50.928;7.172;2023-05-28T13:28:56;1.60;;;1.50;;
12848;SDS011;6493;50.928;7.172;2023-05-28T13:33:59;1.40;;;1.30;;
12848;SDS011;6493;50.928;7.172;2023-05-28T13:39:03;1.57;;;1.47;;
12848;SDS011;6493;50.928;7.172;2023-05-28T13:44:08;1.40;;;1.30;;
12848;SDS011;6493;50.928;7.172;2023-05-28T13:49:12;1.50;;;1.40;;
12848;SDS011;6493;50.928;7.172;2023-05-28T13:54:15;1.90;;;1.17;;
12848;SDS011;6493;50.928;7.172;2023-05-28T13:59:20;1.67;;;1.40;;
12848;SDS011;6493;50.928;7.172;2023-05-28T14:04:24;1.43;;;1.33;;
12848;SDS011;6493;50.928;7.172;2023-05-28T14:09:28;1.33;;;1.23;;
12848;SDS011;6493;50.928;7.172;2023-05-28T14:14:33;1.30;;;1.10;;
12848;SDS011;6493;50.928;7.172;2023-05-28T14:19:37;2.80;;;2.23;;
12848;SDS011;6493;50.928;7.172;2023-05-28T14:24:40;2.43;;;1.80;;
12848;SDS011;6493;50.928;7.172;2023-05-28T14:29:45;2.73;;;2.47;;
12848;SDS011;6493;50.928;7.172;2023-05-28T14:34:49;2.60;;;2.37;;
12848;SDS011;6493;50.928;7.172;2023-05-28T14:39:52;2.10;;;1.90;;
12848;SDS011;6493;50.928;7.172;2023-05-28T14:44:57;1.50;;;1.40;;
12848;SDS011;6493;50.928;7.172;2023-05-28T14:50:01;1.50;;;1.40;;
12848;SDS011;6493;50.928;7.172;2023-05-28T14:55:05;1.50;;;1.40;;
12848;SDS011;6493;50.928;7.172;2023-05-28T15:00:11;1.30;;;1.20;;
12848;SDS011;6493;50.928;7.172;2023-05-28T15:05:16;1.80;;;1.70;;
12848;SDS011;6493;50.928;7.172;2023-05-28T15:10:20;1.40;;;1.30;;
12848;SDS011;6493;50.928;7.172;2023-05-28T15:15:25;1.07;;;1.00;;
12848;SDS011;6493;50.928;7.172;2023-05-28T15:20:29;1.00;;;1.00;;
12848;SDS011;6493;50.928;7.172;2023-05-28T15:25:32;1.10;;;1.00;;
12848;SDS011;6493;50.928;7.172;2023-05-28T15:30:38;1.10;;;1.00;;
12848;SDS011;6493;50.928;7.172;2023-05-28T15:35:42;1.23;;;1.10;;
12848;SDS011;6493;50.928;7.172;2023-05-28T15:40:46;1.30;;;1.20;;
12848;SDS011;6493;50.928;7.172;2023-05-28T15:45:52;1.77;;;1.40;;
12848;SDS011;6493;50.928;7.172;2023-05-28T15:50:56;1.67;;;1.20;;
12848;SDS011;6493;50.928;7.172;2023-05-28T15:56:01;1.47;;;1.37;;
12848;SDS011;6493;50.928;7.172;2023-05-28T16:01:07;1.20;;;1.10;;
12848;SDS011;6493;50.928;7.172;2023-05-28T16:06:12;2.03;;;1.77;;
12848;SDS011;6493;50.928;7.172;2023-05-28T16:11:16;1.50;;;1.40;;
12848;SDS011;6493;50.928;7.172;2023-05-28T16:16:23;1.87;;;1.47;;
12848;SDS011;6493;50.928;7.172;2023-05-28T16:21:28;1.17;;;1.07;;
12848;SDS011;6493;50.928;7.172;2023-05-28T16:26:33;0.80;;;0.80;;
12848;SDS011;6493;50.928;7.172;2023-05-28T16:31:40;1.10;;;1.00;;
12848;SDS011;6493;50.928;7.172;2023-05-28T16:36:44;1.53;;;1.10;;
12848;SDS011;6493;50.928;7.172;2023-05-28T16:41:49;1.17;;;1.00;;
12848;SDS011;6493;50.928;7.172;2023-05-28T16:46:54;0.80;;;0.80;;
12848;SDS011;6493;50.928;7.172;2023-05-28T16:51:59;1.00;;;0.90;;
12848;SDS011;6493;50.928;7.172;2023-05-28T16:57:04;0.87;;;0.80;;
12848;SDS011;6493;50.928;7.172;2023-05-28T17:02:09;0.77;;;0.77;;
12848;SDS011;6493;50.928;7.172;2023-05-28T17:07:13;1.03;;;0.80;;
12848;SDS011;6493;50.928;7.172;2023-05-28T17:12:17;0.97;;;0.63;;
12848;SDS011;6493;50.928;7.172;2023-05-28T17:17:23;0.80;;;0.80;;
12848;SDS011;6493;50.928;7.172;2023-05-28T17:22:27;1.03;;;0.80;;
12848;SDS011;6493;50.928;7.172;2023-05-28T17:27:31;1.30;;;1.20;;
12848;SDS011;6493;50.928;7.172;2023-05-28T17:32:36;1.23;;;0.97;;
12848;SDS011;6493;50.928;7.172;2023-05-28T17:37:40;1.47;;;1.37;;
12848;SDS011;6493;50.928;7.172;2023-05-28T17:42:44;1.53;;;1.17;;
12848;SDS011;6493;50.928;7.172;2023-05-28T17:47:49;1.60;;;1.10;;
12848;SDS011;6493;50.928;7.172;2023-05-28T17:52:53;1.30;;;0.93;;
12848;SDS011;6493;50.928;7.172;2023-05-28T17:57:57;1.17;;;1.07;;
12848;SDS011;6493;50.928;7.172;2023-05-28T18:03:02;1.67;;;1.33;;
12848;SDS011;6493;50.928;7.172;2023-05-28T18:08:07;0.80;;;0.80;;
12848;SDS011;6493;50.928;7.172;2023-05-28T18:13:11;1.17;;;1.07;;
12848;SDS011;6493;50.928;7.172;2023-05-28T18:18:16;0.97;;;0.97;;
12848;SDS011;6493;50.928;7.172;2023-05-28T18:23:20;0.80;;;0.80;;
12848;SDS011;6493;50.928;7.172;2023-05-28T18:28:24;1.10;;;1.00;;
12848;SDS011;6493;50.928;7.172;2023-05-28T18:33:30;1.37;;;0.93;;
12848;SDS011;6493;50.928;7.172;2023-05-28T18:38:34;1.07;;;0.97;;
12848;SDS011;6493;50.928;7.172;2023-05-28T18:43:38;1.43;;;1.00;;
12848;SDS011;6493;50.928;7.172;2023-05-28T18:48:43;1.67;;;1.00;;
12848;SDS011;6493;50.928;7.172;2023-05-28T18:53:46;0.80;;;0.80;;
12848;SDS011;6493;50.928;7.172;2023-05-28T18:58:50;1.20;;;1.10;;
12848;SDS011;6493;50.928;7.172;2023-05-28T19:03:56;2.10;;;1.23;;
12848;SDS011;6493;50.928;7.172;2023-05-28T19:09:00;1.53;;;1.40;;
12848;SDS011;6493;50.928;7.172;2023-05-28T19:14:03;0.80;;;0.80;;
12848;SDS011;6493;50.928;7.172;2023-05-28T19:19:09;1.30;;;1.20;;
12848;SDS011;6493;50.928;7.172;2023-05-28T19:24:12;1.20;;;1.03;;
12848;SDS011;6493;50.928;7.172;2023-05-28T19:29:16;1.27;;;1.10;;
12848;SDS011;6493;50.928;7.172;2023-05-28T19:34:21;1.10;;;0.97;;
12848;SDS011;6493;50.928;7.172;2023-05-28T19:39:25;1.47;;;1.20;;
12848;SDS011;6493;50.928;7.172;2023-05-28T19:44:28;1.67;;;1.03;;
12848;SDS011;6493;50.928;7.172;2023-05-28T19:49:33;1.30;;;1.20;;
12848;SDS011;6493;50.928;7.172;2023-05-28T19:54:37;1.50;;;1.40;;
12848;SDS011;6493;50.928;7.172;2023-05-28T19:59:41;1.43;;;1.20;;
12848;SDS011;6493;50.928;7.172;2023-05-28T20:04:46;1.43;;;1.20;;
12848;SDS011;6493;50.928;7.172;2023-05-28T20:09:50;2.67;;;1.40;;
12848;SDS011;6493;50.928;7.172;2023-05-28T20:14:54;1.40;;;0.93;;
12848;SDS011;6493;50.928;7.172;2023-05-28T20:19:59;1.47;;;1.30;;
12848;SDS011;6493;50.928;7.172;2023-05-28T20:25:03;1.40;;;1.20;;
12848;SDS011;6493;50.928;7.172;2023-05-28T20:30:10;1.43;;;1.10;;
12848;SDS011;6493;50.928;7.172;2023-05-28T20:35:18;2.13;;;1.43;;
12848;SDS011;6493;50.928;7.172;2023-05-28T20:40:21;1.33;;;1.13;;
12848;SDS011;6493;50.928;7.172;2023-05-28T20:45:25;1.63;;;1.10;;
12848;SDS011;6493;50.928;7.172;2023-05-28T20:50:30;2.13;;;1.30;;
12848;SDS011;6493;50.928;7.172;2023-05-28T20:55:37;1.90;;;1.20;;
12848;SDS011;6493;50.928;7.172;2023-05-28T21:00:41;1.70;;;1.50;;
12848;SDS011;6493;50.928;7.172;2023-05-28T21:05:46;2.07;;;1.40;;
12848;SDS011;6493;50.928;7.172;2023-05-28T21:10:50;2.83;;;1.90;;
12848;SDS011;6493;50.928;7.172;2023-05-28T21:15:54;1.40;;;1.30;;
12848;SDS011;6493;50.928;7.172;2023-05-28T21:20:59;1.73;;;1.63;;
12848;SDS011;6493;50.928;7.172;2023-05-28T21:26:02;1.27;;;1.17;;
12848;SDS011;6493;50.928;7.172;2023-05-28T21:31:06;1.33;;;1.00;;
12848;SDS011;6493;50.928;7.172;2023-05-28T21:36:11;1.83;;;1.27;;
12848;SDS011;6493;50.928;7.172;2023-05-28T21:41:15;1.77;;;1.40;;
12848;SDS011;6493;50.928;7.172;2023-05-28T21:46:19;1.67;;;1.50;;
12848;SDS011;6493;50.928;7.172;2023-05-28T21:51:24;3.10;;;1.60;;
12848;SDS011;6493;50.928;7.172;2023-05-28T21:56:28;1.50;;;1.40;;
12848;SDS011;6493;50.928;7.172;2023-05-28T22:01:33;3.00;;;1.50;;
12848;SDS011;6493;50.928;7.172;2023-05-28T22:06:38;1.60;;;1.40;;
12848;SDS011;6493;50.928;7.172;2023-05-28T22:11:42;2.53;;;1.83;;
12848;SDS011;6493;50.928;7.172;2023-05-28T22:16:47;2.20;;;2.00;;
12848;SDS011;6493;50.928;7.172;2023-05-28T22:21:52;2.37;;;2.07;;
12848;SDS011;6493;50.928;7.172;2023-05-28T22:26:56;2.80;;;2.03;;
12848;SDS011;6493;50.928;7.172;2023-05-28T22:32:00;2.97;;;1.90;;
12848;SDS011;6493;50.928;7.172;2023-05-28T22:37:05;1.90;;;1.70;;
12848;SDS011;6493;50.928;7.172;2023-05-28T22:42:09;3.37;;;2.20;;
12848;SDS011;6493;50.928;7.172;2023-05-28T22:47:14;3.67;;;1.83;;
12848;SDS011;6493;50.928;7.172;2023-05-28T22:52:19;1.90;;;1.43;;
12848;SDS011;6493;50.928;7.172;2023-05-28T22:57:23;2.20;;;1.40;;
12848;SDS011;6493;50.928;7.172;2023-05-28T23:02:27;2.43;;;1.70;;
12848;SDS011;6493;50.928;7.172;2023-05-28T23:07:32;2.37;;;1.30;;
12848;SDS011;6493;50.928;7.172;2023-05-28T23:12:36;1.80;;;1.40;;
12848;SDS011;6493;50.928;7.172;2023-05-28T23:17:40;1.50;;;1.13;;
12848;SDS011;6493;50.928;7.172;2023-05-28T23:22:45;1.93;;;1.57;;
12848;SDS011;6493;50.928;7.172;2023-05-28T23:27:49;2.27;;;1.57;;
12848;SDS011;6493;50.928;7.172;2023-05-28T23:32:53;2.00;;;1.43;;
12848;SDS011;6493;50.928;7.172;2023-05-28T23:37:58;1.90;;;1.20;;
12848;SDS011;6493;50.928;7.172;2023-05-28T23:43:01;4.20;;;1.40;;
12848;SDS011;6493;50.928;7.172;2023-05-28T23:48:05;2.23;;;1.50;;
12848;SDS011;6493;50.928;7.172;2023-05-28T23:53:11;3.43;;;1.87;;
12848;SDS011;6493;50.928;7.172;2023-05-28T23:58:15;1.90;;;1.47;;
